ADDS METAR Data INFO
IDs: Format: Raw Decoded Include TAF

Data at: 1037 UTC 19 Oct 2017

KCDH 191015Z AUTO 00000KT 9SM FEW029 07/06 A3018 RMK AO2
KCDH 190955Z AUTO 00000KT 1SM BR BKN029 07/06 A3018 RMK AO2
KCDH 190935Z AUTO 00000KT 8SM BKN028 07/06 A3017 RMK AO2
KCDH 190915Z AUTO 00000KT 3/4SM BR SCT020 OVC028 07/06 A3017 RMK AO2
KCDH 190855Z AUTO 00000KT 3SM BR FEW022 BKN027 08/07 A3017 RMK AO2
KCDH 190835Z AUTO 00000KT 1SM BR BKN028 07/06 A3017 RMK AO2
KCDH 190815Z AUTO 00000KT 4SM BR SCT028 08/07 A3017 RMK AO2
KCDH 190755Z AUTO 00000KT 3/4SM BR VV005 07/06 A3017 RMK AO2
KCDH 190735Z AUTO 00000KT 1/2SM FG VV005 08/07 A3016 RMK AO2
KCDH 190715Z AUTO 00000KT 1SM BR CLR 08/07 A3016 RMK AO2
KCDH 190655Z AUTO 00000KT 2 1/2SM BR CLR 08/07 A3016 RMK AO2
KCDH 190635Z AUTO 00000KT 2SM BR FEW022 09/08 A3016 RMK AO2
KCDH 190615Z AUTO 00000KT 1/2SM BR VV005 09/08 A3016 RMK AO2
KCDH 190555Z AUTO 00000KT 1/2SM BR VV005 09/08 A3016 RMK AO2 VIS 1/4V2 1/2
KCDH 190535Z AUTO 3/4SM BR VV005 09/08 A3016 RMK AO2 VIS 1/4V5
KCDH 190515Z AUTO 00000KT 5SM BR FEW029 10/09 A3016 RMK AO2
KCDH 190455Z AUTO 00000KT 9SM FEW027 10/09 A3017 RMK AO2
KCDH 190435Z AUTO 00000KT 3SM BR FEW029 10/09 A3017 RMK AO2
KCDH 190415Z AUTO 00000KT 9SM SCT027 11/10 A3017 RMK AO2
KCDH 190355Z AUTO 00000KT 10SM SCT026 SCT030 11/10 A3017 RMK AO2
KCDH 190335Z AUTO 00000KT 9SM FEW028 11/10 A3017 RMK AO2
KCDH 190315Z AUTO 00000KT 10SM FEW028 12/10 A3017 RMK AO2
KCDH 190255Z AUTO 00000KT 10SM CLR 12/11 A3017 RMK AO2
KCDH 190235Z AUTO 00000KT 10SM CLR 13/11 A3017 RMK AO2
KCDH 190215Z AUTO 00000KT 10SM CLR 13/11 A3017 RMK AO2
KCDH 190155Z AUTO 00000KT 10SM FEW027 13/11 A3016 RMK AO2
KCDH 190135Z AUTO 00000KT 10SM FEW030 13/11 A3017 RMK AO2
KCDH 190115Z AUTO 00000KT 10SM FEW031 14/12 A3016 RMK AO2
KCDH 190055Z AUTO 00000KT 10SM FEW031 15/12 A3016 RMK AO2
KCDH 190035Z AUTO 00000KT 10SM FEW030 15/12 A3015 RMK AO2
KCDH 190015Z AUTO 00000KT 10SM FEW030 16/12 A3015 RMK AO2
KCDH 182355Z AUTO 00000KT 10SM CLR 18/12 A3014 RMK AO2
KCDH 182335Z AUTO 00000KT 10SM CLR 20/12 A3014 RMK AO2
KCDH 182315Z AUTO 00000KT 10SM CLR 24/10 A3013 RMK AO2
KCDH 182255Z AUTO 13005KT 10SM CLR 25/10 A3013 RMK AO2
KCDH 182235Z AUTO VRB05KT 10SM CLR 26/10 A3013 RMK AO2
KCDH 182215Z AUTO VRB03KT 10SM CLR 27/09 A3012 RMK AO2
KCDH 182155Z AUTO 00000G10KT 10SM CLR 27/10 A3012 RMK AO2
KCDH 182135Z AUTO VRB03KT 10SM CLR 28/10 A3012 RMK AO2
KCDH 182115Z AUTO VRB06KT 10SM CLR 27/09 A3013 RMK AO2
KCDH 182055Z AUTO 00000KT 10SM CLR 28/09 A3013 RMK AO2
KCDH 182035Z AUTO VRB05KT 10SM CLR 28/08 A3013 RMK AO2
KCDH 182015Z AUTO VRB04KT 10SM CLR 28/09 A3014 RMK AO2
KCDH 181955Z AUTO 16006KT 10SM CLR 27/09 A3014 RMK AO2
KCDH 181935Z AUTO 00000KT 10SM CLR 27/09 A3015 RMK AO2
KCDH 181915Z AUTO VRB06KT 10SM CLR 27/09 A3016 RMK AO2
KCDH 181855Z AUTO VRB05KT 10SM CLR 26/09 A3016 RMK AO2
KCDH 181835Z AUTO VRB04G10KT 10SM CLR 26/09 A3017 RMK AO2
KCDH 181815Z AUTO 15005KT 10SM CLR 26/09 A3019 RMK AO2
KCDH 181755Z AUTO 17005KT 10SM CLR 25/09 A3020 RMK AO2
KCDH 181735Z AUTO VRB05KT 10SM CLR 25/10 A3021 RMK AO2
KCDH 181715Z AUTO 16005G10KT 10SM CLR 24/10 A3022 RMK AO2
KCDH 181655Z AUTO VRB05G10KT 10SM CLR 24/10 A3023 RMK AO2
KCDH 181635Z AUTO 00000KT 10SM CLR 23/10 A3023 RMK AO2
KCDH 181615Z AUTO VRB05KT 10SM CLR 22/10 A3023 RMK AO2
KCDH 181555Z AUTO 17004KT 10SM CLR 21/10 A3024 RMK AO2
KCDH 181535Z AUTO 18005KT 10SM CLR 19/10 A3024 RMK AO2
KCDH 181515Z AUTO 16005KT 10SM CLR 18/10 A3024 RMK AO2
KCDH 181455Z AUTO VRB03KT 10SM CLR 16/10 A3024 RMK AO2
KCDH 181435Z AUTO 00000KT 10SM CLR 15/09 A3024 RMK AO2
KCDH 181415Z AUTO 00000KT 10SM CLR 12/08 A3024 RMK AO2
KCDH 181355Z AUTO 00000KT 10SM CLR 11/07 A3023 RMK AO2
KCDH 181335Z AUTO 00000KT 10SM CLR 09/06 A3023 RMK AO2
KCDH 181315Z AUTO 00000KT 10SM CLR 07/06 A3022 RMK AO2
KCDH 181255Z AUTO 00000KT 9SM CLR 05/03 A3022 RMK AO2
KCDH 181235Z AUTO 00000KT 8SM CLR 04/02 A3021 RMK AO2
KCDH 181215Z AUTO 00000KT 9SM CLR 04/03 A3021 RMK AO2
KCDH 181155Z AUTO 00000KT 3SM BR FEW030 FEW035 04/03 A3020 RMK AO2
KCDH 181135Z AUTO 00000KT 6SM BR FEW030 FEW035 04/03 A3021 RMK AO2
KCDH 181115Z AUTO 00000KT 10SM FEW032 04/03 A3021 RMK AO2
KCDH 181055Z AUTO 00000KT 10SM CLR 04/03 A3020 RMK AO2
KCDH 181035Z AUTO 00000KT 10SM CLR 05/03 A3021 RMK AO2
KCDH 181015Z AUTO 00000KT 10SM CLR 05/03 A3020 RMK AO2
KCDH 180955Z AUTO 10SM CLR 05/04 A3020 RMK AO2
KCDH 180935Z AUTO 00000KT 10SM CLR 05/04 A3020 RMK AO2
KCDH 180915Z AUTO 00000KT 10SM CLR 05/04 A3020 RMK AO2
KCDH 180855Z AUTO 10SM CLR 05/04 A3020 RMK AO2
KCDH 180835Z AUTO 10SM CLR 05/03 A3020 RMK AO2
KCDH 180815Z AUTO 00000KT 9SM CLR 05/04 A3020 RMK AO2
KCDH 180755Z AUTO 00000KT 10SM CLR 05/04 A3020 RMK AO2
KCDH 180735Z AUTO 00000KT 5SM BR CLR 05/04 A3020 RMK AO2
KCDH 180715Z AUTO 00000KT 7SM CLR 06/04 A3020 RMK AO2
KCDH 180655Z AUTO 00000KT 10SM FEW031 06/05 A3020 RMK AO2
KCDH 180635Z AUTO 00000KT 10SM SCT032 06/05 A3020 RMK AO2
KCDH 180615Z AUTO 00000KT 10SM BKN032 06/05 A3020 RMK AO2
KCDH 180555Z AUTO 00000KT 10SM OVC032 06/05 A3021 RMK AO2
KCDH 180535Z AUTO 00000KT 10SM SCT031 06/05 A3021 RMK AO2
KCDH 180515Z AUTO 00000KT 10SM CLR 06/05 A3021 RMK AO2
KCDH 180455Z AUTO 10SM CLR 07/05 A3021 RMK AO2
KCDH 180435Z AUTO 00000KT 10SM CLR 07/06 A3021 RMK AO2
KCDH 180415Z AUTO 00000KT 10SM CLR 07/06 A3021 RMK AO2
KCDH 180355Z AUTO 00000KT 10SM CLR 07/06 A3021 RMK AO2
KCDH 180335Z AUTO 00000KT 10SM CLR 08/06 A3021 RMK AO2
KCDH 180315Z AUTO 00000KT 10SM CLR 08/06 A3021 RMK AO2
KCDH 180255Z AUTO 00000KT 10SM CLR 09/07 A3021 RMK AO2
KCDH 180235Z AUTO 00000KT 10SM CLR 09/07 A3020 RMK AO2
KCDH 180215Z AUTO 00000KT 10SM CLR 10/07 A3020 RMK AO2
KCDH 180155Z AUTO 00000KT 10SM CLR 10/07 A3019 RMK AO2
KCDH 180135Z AUTO 00000KT 10SM CLR 10/07 A3019 RMK AO2
KCDH 180115Z AUTO 00000KT 10SM CLR 11/07 A3019 RMK AO2
KCDH 180055Z AUTO 00000KT 10SM CLR 12/07 A3018 RMK AO2
KCDH 180035Z AUTO 00000KT 10SM CLR 13/07 A3018 RMK AO2
KCDH 180015Z AUTO 00000KT 10SM CLR 13/07 A3018 RMK AO2
KCDH 172355Z AUTO 00000KT 10SM CLR 15/07 A3017 RMK AO2
KCDH 172335Z AUTO 00000KT 10SM CLR 17/07 A3017 RMK AO2
KCDH 172315Z AUTO 00000KT 10SM CLR 21/04 A3017 RMK AO2
KCDH 172255Z AUTO 00000KT 10SM CLR 23/03 A3018 RMK AO2